Time;durP1;ratioP1;P1;durP2;ratioP2;P2;SDS_P1;SDS_P2;PMS_P1;PMS_P2;Temp;Humidity;BMP_temperature;BMP_pressure;BME280_temperature;BME280_humidity;BME280_pressure;Samples;Min_cycle;Max_cycle;Signal;HPM_P1;HPM_P2
2021/03/13 00:00:07;;;;;;;25.45;7.28;;;6.00;99.30;;;;;;5105694;28;20044;-67
2021/03/13 00:02:33;;;;;;;24.20;7.07;;;6.00;99.40;;;;;;5108727;28;20090;-66
2021/03/13 00:04:59;;;;;;;24.13;7.57;;;5.90;99.30;;;;;;5108460;28;20074;-66
2021/03/13 00:07:25;;;;;;;27.85;7.38;;;5.90;99.40;;;;;;5108754;28;20044;-66
2021/03/13 00:09:51;;;;;;;27.92;6.18;;;6.00;99.20;;;;;;5108332;28;20048;-66
2021/03/13 00:12:17;;;;;;;27.70;7.40;;;6.00;99.10;;;;;;5105955;28;20040;-66
2021/03/13 00:14:43;;;;;;;19.00;5.85;;;6.00;98.90;;;;;;5109045;28;20036;-66
2021/03/13 00:17:09;;;;;;;24.48;6.57;;;6.00;99.00;;;;;;5108939;28;20089;-66
2021/03/13 00:19:35;;;;;;;30.15;6.57;;;5.90;98.80;;;;;;5107869;28;20105;-66
2021/03/13 00:22:04;;;;;;;24.27;6.65;;;5.80;99.00;;;;;;5109272;28;20126;-66
2021/03/13 00:24:30;;;;;;;19.60;6.35;;;5.80;99.20;;;;;;5109397;28;20180;-66
2021/03/13 00:26:56;;;;;;;32.65;7.47;;;5.80;99.00;;;;;;5108757;28;20074;-66
2021/03/13 00:29:22;;;;;;;22.35;6.93;;;5.90;98.80;;;;;;5108177;28;20100;-66
2021/03/13 00:31:52;;;;;;;22.65;6.10;;;5.90;98.70;;;;;;5108499;28;20044;-66
2021/03/13 00:34:19;;;;;;;23.30;6.05;;;5.80;98.80;;;;;;5108076;28;20081;-65
2021/03/13 00:36:45;;;;;;;20.48;5.57;;;5.80;98.80;;;;;;5109180;28;20044;-66
2021/03/13 00:39:11;;;;;;;18.73;5.80;;;5.70;98.80;;;;;;5108941;28;20048;-66
2021/03/13 00:41:37;;;;;;;21.02;5.38;;;5.70;98.90;;;;;;5109109;28;20055;-66
2021/03/13 00:44:03;;;;;;;24.20;6.30;;;5.60;98.80;;;;;;5108936;28;20048;-66
2021/03/13 00:46:29;;;;;;;26.13;6.05;;;5.60;99.00;;;;;;5090279;28;20506;-66
2021/03/13 00:48:55;;;;;;;16.40;6.50;;;5.70;99.10;;;;;;5107879;28;20119;-66
2021/03/13 00:51:20;;;;;;;21.23;6.35;;;5.60;99.00;;;;;;5107604;28;20100;-66
2021/03/13 00:53:47;;;;;;;20.55;5.53;;;5.60;98.90;;;;;;5107874;28;20064;-66
2021/03/13 00:56:12;;;;;;;17.38;6.35;;;5.60;98.80;;;;;;5107673;28;20043;-66
2021/03/13 00:58:38;;;;;;;23.77;5.60;;;5.60;98.80;;;;;;5107743;28;20613;-66
2021/03/13 01:01:04;;;;;;;21.08;5.85;;;5.70;98.60;;;;;;5107755;28;20036;-66
2021/03/13 01:03:30;;;;;;;18.83;6.18;;;5.80;98.50;;;;;;5107675;28;20299;-66
2021/03/13 01:05:56;;;;;;;18.77;6.07;;;5.70;98.60;;;;;;5107430;28;20048;-66
2021/03/13 01:08:22;;;;;;;18.90;6.05;;;5.70;98.60;;;;;;5108402;28;20059;-66
2021/03/13 01:10:49;;;;;;;18.80;6.28;;;5.70;98.70;;;;;;5107037;28;20040;-66
2021/03/13 01:13:15;;;;;;;19.45;5.90;;;5.60;98.90;;;;;;5107374;28;20115;-66
2021/03/13 01:15:42;;;;;;;19.60;6.22;;;5.60;98.90;;;;;;5107904;28;20054;-67
2021/03/13 01:18:08;;;;;;;17.67;6.53;;;5.70;98.70;;;;;;5107791;28;20048;-66
2021/03/13 01:20:34;;;;;;;22.95;6.72;;;5.70;98.60;;;;;;5107329;28;20070;-66
2021/03/13 01:23:00;;;;;;;19.95;5.78;;;5.70;98.50;;;;;;5107821;28;20096;-66
2021/03/13 01:25:26;;;;;;;19.23;7.15;;;5.70;98.90;;;;;;5108193;28;20059;-66
2021/03/13 01:27:51;;;;;;;21.98;6.95;;;5.70;98.70;;;;;;5108146;28;20047;-66
2021/03/13 01:30:21;;;;;;;24.73;7.15;;;5.80;98.50;;;;;;5106742;28;20519;-66
2021/03/13 01:32:48;;;;;;;17.52;6.57;;;5.80;98.20;;;;;;5107439;28;20082;-66
2021/03/13 01:35:14;;;;;;;22.60;6.38;;;5.70;98.50;;;;;;5107156;28;20500;-66
2021/03/13 01:37:40;;;;;;;23.33;6.82;;;5.80;98.50;;;;;;5101592;28;20093;-66
2021/03/13 01:40:10;;;;;;;15.68;5.43;;;5.80;98.60;;;;;;5087197;28;20051;-66
2021/03/13 01:42:37;;;;;;;18.70;6.10;;;5.90;98.60;;;;;;5101840;28;20051;-66
2021/03/13 01:45:08;;;;;;;18.83;6.03;;;5.90;98.70;;;;;;5107525;28;20046;-66
2021/03/13 01:47:34;;;;;;;24.20;6.63;;;5.90;98.60;;;;;;5105654;28;20048;-66
2021/03/13 01:50:05;;;;;;;18.40;6.95;;;5.80;98.80;;;;;;5106884;28;20125;-66
2021/03/13 01:52:31;;;;;;;;;;;5.80;99.00;;;;;;5098433;28;20056;-66
2021/03/13 01:54:57;;;;;;;13.23;5.60;;;5.90;98.80;;;;;;5098420;28;19920;-66
2021/03/13 01:57:24;;;;;;;14.45;5.38;;;5.90;98.70;;;;;;5106899;28;20048;-66
2021/03/13 01:59:50;;;;;;;20.00;6.00;;;6.10;98.30;;;;;;5106357;28;20071;-66
2021/03/13 02:02:16;;;;;;;20.83;5.93;;;5.90;98.50;;;;;;5105121;28;20071;-66
2021/03/13 02:04:43;;;;;;;20.30;5.57;;;6.10;98.10;;;;;;5106351;28;20048;-66
2021/03/13 02:07:32;;;;;;;16.38;5.68;;;6.20;97.70;;;;;;5098426;28;20592;-66
2021/03/13 02:10:11;;;;;;;20.33;6.55;;;6.00;98.50;;;;;;5086496;28;20049;-66
2021/03/13 02:13:19;;;;;;;24.50;7.03;;;6.00;98.30;;;;;;5098965;28;20060;-66
2021/03/13 02:16:01;;;;;;;18.83;6.35;;;6.20;98.30;;;;;;5064945;28;20060;-66
2021/03/13 02:19:05;;;;;;;19.33;6.00;;;6.30;97.80;;;;;;5082194;28;20052;-66
2021/03/13 02:21:39;;;;;;;19.25;6.32;;;6.20;97.70;;;;;;5043661;28;20057;-66
2021/03/13 02:24:23;;;;;;;15.98;6.03;;;6.20;98.00;;;;;;5055183;28;20116;-66
2021/03/13 02:27:09;;;;;;;25.77;6.32;;;6.50;97.20;;;;;;5063919;28;20056;-66
2021/03/13 02:29:36;;;;;;;17.05;5.80;;;6.50;97.10;;;;;;5063352;28;20056;-66
2021/03/13 02:32:05;;;;;;;20.85;5.93;;;6.50;97.50;;;;;;5063228;28;20073;-66
2021/03/13 02:34:40;;;;;;;15.25;5.88;;;6.60;97.10;;;;;;5063814;28;20048;-66
2021/03/13 02:37:12;;;;;;;18.25;5.72;;;6.50;97.40;;;;;;5063673;28;20111;-66
2021/03/13 02:39:42;;;;;;;17.25;6.25;;;6.60;97.30;;;;;;5063727;28;20104;-66
2021/03/13 02:42:10;;;;;;;14.77;5.20;;;6.50;97.20;;;;;;5062911;28;20354;-66
2021/03/13 02:44:38;;;;;;;15.80;5.20;;;6.60;97.00;;;;;;5063455;28;20064;-66
2021/03/13 02:47:08;;;;;;;11.93;5.50;;;6.70;96.90;;;;;;5063318;28;20049;-66
2021/03/13 02:49:37;;;;;;;20.33;4.95;;;6.60;96.80;;;;;;5083476;28;20068;-66
2021/03/13 02:52:05;;;;;;;13.02;4.78;;;6.70;96.50;;;;;;5105468;28;20044;-66
2021/03/13 02:54:33;;;;;;;14.07;4.68;;;6.80;96.10;;;;;;5105540;28;20071;-66
2021/03/13 02:57:00;;;;;;;11.65;4.20;;;6.80;96.40;;;;;;5105807;28;20455;-66
2021/03/13 02:59:28;;;;;;;12.77;4.55;;;6.80;96.20;;;;;;5105674;28;20105;-66
2021/03/13 03:01:56;;;;;;;19.88;5.38;;;6.60;96.70;;;;;;5105548;28;20125;-66
2021/03/13 03:04:23;;;;;;;16.42;6.10;;;6.50;97.20;;;;;;5105626;28;20040;-66
2021/03/13 03:06:52;;;;;;;16.63;4.88;;;6.40;97.50;;;;;;5096326;28;20060;-66
2021/03/13 03:09:20;;;;;;;16.05;5.20;;;6.60;97.20;;;;;;5085375;28;20067;-67
2021/03/13 03:11:46;;;;;;;14.70;4.60;;;6.50;97.40;;;;;;5088235;28;20046;-66
2021/03/13 03:14:15;;;;;;;15.93;4.82;;;6.40;98.00;;;;;;5105381;28;20473;-66
2021/03/13 03:16:45;;;;;;;12.27;4.40;;;6.40;98.10;;;;;;5105553;28;20068;-66
2021/03/13 03:19:13;;;;;;;;;;;6.60;97.80;;;;;;5105568;28;20052;-66
2021/03/13 03:21:40;;;;;;;11.70;4.00;;;6.70;97.30;;;;;;5105183;28;20379;-66
2021/03/13 03:24:07;;;;;;;11.80;4.68;;;6.70;97.60;;;;;;5105456;28;20048;-66
2021/03/13 03:26:34;;;;;;;14.15;4.25;;;6.60;97.80;;;;;;5105129;28;20075;-66
2021/03/13 03:29:01;;;;;;;12.88;4.40;;;6.50;98.20;;;;;;5100739;28;20048;-66
2021/03/13 03:31:27;;;;;;;18.80;4.45;;;6.50;98.20;;;;;;5086774;28;20070;-66
2021/03/13 03:33:53;;;;;;;13.52;4.25;;;6.70;97.80;;;;;;5105353;28;20518;-66
2021/03/13 03:36:19;;;;;;;10.57;3.83;;;6.70;97.90;;;;;;5104374;28;20043;-66
2021/03/13 03:38:45;;;;;;;11.98;3.85;;;6.60;97.90;;;;;;5105035;28;20515;-66
2021/03/13 03:41:11;;;;;;;12.95;3.70;;;6.60;97.80;;;;;;5105312;28;20507;-66
2021/03/13 03:43:45;;;;;;;10.80;3.80;;;6.50;98.20;;;;;;5086703;28;20055;-66
2021/03/13 03:46:13;;;;;;;10.45;3.97;;;6.60;98.10;;;;;;5105102;28;20059;-66
2021/03/13 03:48:40;;;;;;;8.55;2.83;;;6.70;97.80;;;;;;5105094;28;20140;-66
2021/03/13 03:51:12;;;;;;;9.95;4.00;;;6.60;98.30;;;;;;5105122;28;20044;-66
2021/03/13 03:53:43;;;;;;;6.03;3.15;;;6.70;97.80;;;;;;5104580;28;20051;-66
2021/03/13 03:56:10;;;;;;;9.05;3.67;;;6.80;97.80;;;;;;5105148;28;20040;-66
2021/03/13 03:58:43;;;;;;;6.93;3.22;;;6.70;98.10;;;;;;5104961;28;20074;-66
2021/03/13 04:01:10;;;;;;;10.15;3.90;;;6.40;99.00;;;;;;5104930;28;20504;-66
2021/03/13 04:03:46;;;;;;;8.23;3.90;;;6.60;99.00;;;;;;5083180;28;20044;-66
2021/03/13 04:06:13;;;;;;;8.05;3.35;;;6.40;99.10;;;;;;5088575;28;20047;-66
2021/03/13 04:08:43;;;;;;;8.38;2.97;;;6.30;99.50;;;;;;5104851;28;20044;-66
2021/03/13 04:11:12;;;;;;;6.32;3.08;;;6.60;98.90;;;;;;5104930;28;20051;-66
2021/03/13 04:13:39;;;;;;;6.28;3.67;;;6.70;98.60;;;;;;5104527;28;20047;-66
2021/03/13 04:16:06;;;;;;;7.25;3.53;;;6.80;98.30;;;;;;5104748;28;20126;-66
2021/03/13 04:18:32;;;;;;;6.28;3.58;;;6.60;98.50;;;;;;5103182;28;20058;-66
2021/03/13 04:20:58;;;;;;;5.07;2.75;;;6.60;98.60;;;;;;5105122;28;20057;-66
2021/03/13 04:23:25;;;;;;;3.53;2.33;;;6.40;99.50;;;;;;5104400;28;20472;-66
2021/03/13 04:25:52;;;;;;;8.75;3.70;;;6.70;98.90;;;;;;5104374;28;20119;-66
2021/03/13 04:28:19;;;;;;;5.90;3.30;;;6.50;99.10;;;;;;5102934;28;20067;-66
2021/03/13 04:30:46;;;;;;;5.35;2.63;;;6.50;99.20;;;;;;5103179;28;20074;-66
2021/03/13 04:33:12;;;;;;;6.88;2.97;;;6.60;98.00;;;;;;5105054;28;20059;-66
2021/03/13 04:35:39;;;;;;;5.15;2.47;;;6.60;98.30;;;;;;5104385;28;20094;-66
2021/03/13 04:38:07;;;;;;;4.13;3.45;;;6.60;98.90;;;;;;5104873;28;20101;-66
2021/03/13 04:40:34;;;;;;;6.80;2.80;;;6.70;98.50;;;;;;5104567;28;20550;-66
2021/03/13 04:43:00;;;;;;;4.95;3.03;;;6.60;98.60;;;;;;5103852;28;20048;-66
2021/03/13 04:45:26;;;;;;;4.05;2.60;;;6.60;98.80;;;;;;5105067;28;20083;-66
2021/03/13 04:47:52;;;;;;;5.68;2.38;;;6.70;98.80;;;;;;5107803;28;20488;-66
2021/03/13 04:50:20;;;;;;;5.82;3.20;;;6.70;98.70;;;;;;5108391;28;20065;-66
2021/03/13 04:52:47;;;;;;;6.50;3.28;;;6.70;98.80;;;;;;5108000;28;20444;-66
2021/03/13 04:55:13;;;;;;;5.10;3.38;;;6.60;98.90;;;;;;5107557;28;20082;-66
2021/03/13 04:57:39;;;;;;;3.63;2.63;;;6.60;98.90;;;;;;5108468;28;20097;-66
2021/03/13 05:00:11;;;;;;;5.90;3.58;;;6.80;98.80;;;;;;5107674;28;20119;-66
2021/03/13 05:02:37;;;;;;;3.05;2.70;;;6.80;98.60;;;;;;5107488;28;20052;-66
2021/03/13 05:05:04;;;;;;;4.10;2.92;;;6.70;98.90;;;;;;5107956;28;20073;-66
2021/03/13 05:07:29;;;;;;;4.30;2.60;;;6.80;98.90;;;;;;5108736;28;20069;-66
2021/03/13 05:09:55;;;;;;;6.53;3.63;;;6.80;98.90;;;;;;5108041;28;20068;-66
2021/03/13 05:12:21;;;;;;;4.60;2.90;;;6.80;98.70;;;;;;5107863;28;20082;-66
2021/03/13 05:14:47;;;;;;;3.95;3.25;;;6.80;99.00;;;;;;5107377;28;20048;-66
2021/03/13 05:17:13;;;;;;;3.90;2.50;;;6.80;98.90;;;;;;5107611;28;20072;-66
2021/03/13 05:19:39;;;;;;;4.75;3.40;;;6.80;99.20;;;;;;5107419;28;20055;-66
2021/03/13 05:22:05;;;;;;;5.32;3.50;;;6.90;98.90;;;;;;5107085;28;20056;-66
2021/03/13 05:24:31;;;;;;;5.20;2.67;;;6.90;99.00;;;;;;5107833;28;20049;-66
2021/03/13 05:26:57;;;;;;;5.32;2.67;;;6.80;99.30;;;;;;5107544;28;20526;-66
2021/03/13 05:29:23;;;;;;;4.10;3.22;;;6.90;98.90;;;;;;5106937;28;20109;-66
2021/03/13 05:31:49;;;;;;;8.07;2.53;;;6.90;99.00;;;;;;5104637;28;20051;-66
2021/03/13 05:34:15;;;;;;;3.72;2.65;;;7.00;98.90;;;;;;5107764;28;20048;-66
2021/03/13 05:36:41;;;;;;;5.95;3.42;;;7.00;99.10;;;;;;5107986;28;20056;-66
2021/03/13 05:39:07;;;;;;;5.30;2.60;;;6.90;99.20;;;;;;5107485;28;20124;-66
2021/03/13 05:41:35;;;;;;;4.35;3.40;;;7.00;99.40;;;;;;5106793;28;20051;-66
2021/03/13 05:44:03;;;;;;;4.47;2.85;;;6.80;99.80;;;;;;5106826;28;20040;-66
2021/03/13 05:46:35;;;;;;;4.03;2.88;;;6.90;99.50;;;;;;5091729;28;20047;-66
2021/03/13 05:49:07;;;;;;;3.67;2.85;;;7.10;99.30;;;;;;5106738;28;20051;-66
2021/03/13 05:51:45;;;;;;;4.28;3.08;;;7.00;99.70;;;;;;5093090;28;20067;-66
2021/03/13 05:54:13;;;;;;;5.30;4.25;;;7.10;99.50;;;;;;5098853;28;20052;-66
2021/03/13 05:56:40;;;;;;;4.47;3.22;;;7.00;99.50;;;;;;5106469;28;20036;-66
2021/03/13 05:59:06;;;;;;;6.82;3.50;;;7.10;99.20;;;;;;5105709;28;20097;-66
2021/03/13 06:01:33;;;;;;;6.22;3.80;;;7.00;99.60;;;;;;5106495;28;20042;-66
2021/03/13 06:03:59;;;;;;;3.55;2.35;;;7.10;99.40;;;;;;5106326;28;20132;-66
2021/03/13 06:06:26;;;;;;;4.03;3.40;;;7.30;99.10;;;;;;5106563;28;20508;-66
2021/03/13 06:08:53;;;;;;;5.40;3.10;;;7.20;99.20;;;;;;5106673;28;20070;-66
2021/03/13 06:11:21;;;;;;;5.68;3.08;;;7.20;99.50;;;;;;5106694;28;20485;-66
2021/03/13 06:13:47;;;;;;;4.85;2.55;;;7.20;99.40;;;;;;5106863;28;20052;-66
2021/03/13 06:16:13;;;;;;;5.85;3.30;;;7.30;99.20;;;;;;5107329;28;20131;-66
2021/03/13 06:18:48;;;;;;;5.78;3.42;;;7.10;99.70;;;;;;5106848;28;20075;-66
2021/03/13 06:21:25;;;;;;;6.97;3.50;;;7.00;99.90;;;;;;5087583;28;20040;-66
2021/03/13 06:23:57;;;;;;;5.38;2.97;;;7.20;99.60;;;;;;5096641;28;20092;-66
2021/03/13 06:26:24;;;;;;;5.50;4.00;;;7.30;99.60;;;;;;5106097;28;20498;-66
2021/03/13 06:28:55;;;;;;;7.80;3.78;;;7.20;99.70;;;;;;5106342;28;20047;-66
2021/03/13 06:31:25;;;;;;;3.58;2.85;;;7.00;99.90;;;;;;5106144;28;20143;-66
2021/03/13 06:33:51;;;;;;;5.78;3.50;;;7.20;99.90;;;;;;5105855;28;20048;-67
2021/03/13 06:36:26;;;;;;;6.70;3.45;;;7.10;99.90;;;;;;5091871;28;20072;-66
2021/03/13 06:38:53;;;;;;;4.93;3.42;;;7.20;99.90;;;;;;5106864;28;20059;-66
2021/03/13 06:41:23;;;;;;;5.93;3.28;;;7.30;99.50;;;;;;5106750;28;20061;-66
2021/03/13 06:43:56;;;;;;;7.43;3.20;;;7.00;99.90;;;;;;5106175;28;20173;-66
2021/03/13 06:46:29;;;;;;;8.15;4.40;;;6.90;99.90;;;;;;5106570;28;20055;-66
2021/03/13 06:48:57;;;;;;;3.70;2.55;;;7.10;99.90;;;;;;5105617;28;20048;-66
2021/03/13 06:51:33;;;;;;;3.60;2.20;;;7.20;99.90;;;;;;5105475;28;20047;-67
2021/03/13 06:54:01;;;;;;;5.05;3.47;;;7.50;99.50;;;;;;5105283;28;20051;-66
2021/03/13 06:56:28;;;;;;;4.60;2.58;;;7.40;99.60;;;;;;5105779;28;20052;-66
2021/03/13 06:58:54;;;;;;;3.38;2.50;;;7.40;99.80;;;;;;5105331;28;20050;-66
2021/03/13 07:01:31;;;;;;;4.07;2.30;;;7.40;99.70;;;;;;5105419;28;20063;-66
2021/03/13 07:03:59;;;;;;;6.32;2.22;;;7.40;99.30;;;;;;5105193;28;20043;-66
2021/03/13 07:06:25;;;;;;;2.78;1.60;;;7.20;99.90;;;;;;5105205;28;20047;-66
2021/03/13 07:08:53;;;;;;;3.15;1.20;;;7.20;99.30;;;;;;5087526;28;20044;-67
2021/03/13 07:11:24;;;;;;;2.08;1.02;;;7.10;99.50;;;;;;5105930;28;20109;-67
2021/03/13 07:13:56;;;;;;;3.88;1.20;;;6.70;99.20;;;;;;5103507;28;20059;-67
2021/03/13 07:16:35;;;;;;;2.30;1.02;;;6.10;99.90;;;;;;5104610;28;20036;-68
2021/03/13 07:19:11;;;;;;;7.78;1.33;;;5.70;99.90;;;;;;5107456;28;20097;-67
2021/03/13 07:21:40;;;;;;;4.00;1.52;;;5.70;99.40;;;;;;5101864;28;20062;-67
2021/03/13 07:24:13;;;;;;;4.88;1.30;;;5.60;99.20;;;;;;5100651;28;20059;-63
2021/03/13 07:26:45;;;;;;;2.00;1.10;;;5.60;99.00;;;;;;5105259;28;20048;-69
2021/03/13 07:29:13;;;;;;;4.28;1.67;;;5.50;99.20;;;;;;5105598;28;20107;-71
2021/03/13 07:31:41;;;;;;;5.78;1.20;;;5.60;98.80;;;;;;5091862;28;20032;-71
2021/03/13 07:34:20;;;;;;;4.82;1.00;;;5.60;99.10;;;;;;5102663;28;20127;-70
2021/03/13 07:36:54;;;;;;;3.72;0.93;;;5.60;98.80;;;;;;5104662;28;20044;-70
2021/03/13 07:39:28;;;;;;;3.53;1.20;;;5.70;98.50;;;;;;5104234;28;20103;-70
2021/03/13 07:41:57;;;;;;;4.22;1.23;;;5.90;98.10;;;;;;5086045;28;20070;-70
2021/03/13 07:44:23;;;;;;;5.15;1.60;;;5.90;98.00;;;;;;5104489;28;20056;-70
2021/03/13 07:46:50;;;;;;;8.27;1.88;;;6.00;97.80;;;;;;5105165;28;20040;-71
2021/03/13 07:49:17;;;;;;;4.07;1.27;;;6.10;97.40;;;;;;5105713;28;20515;-70
2021/03/13 07:51:43;;;;;;;4.43;1.80;;;6.30;96.60;;;;;;5086898;28;20047;-73
2021/03/13 07:54:10;;;;;;;6.47;1.42;;;6.30;96.90;;;;;;5104689;28;20120;-72
2021/03/13 07:56:41;;;;;;;7.32;1.67;;;6.40;96.60;;;;;;5103777;28;20040;-72
2021/03/13 07:59:11;;;;;;;10.07;1.48;;;6.50;96.30;;;;;;5104483;28;20105;-71
2021/03/13 08:01:48;;;;;;;9.40;2.20;;;6.60;95.90;;;;;;5086675;28;20128;-72
2021/03/13 08:04:51;;;;;;;6.00;1.45;;;6.70;95.30;;;;;;5102690;28;20193;-71
2021/03/13 08:07:17;;;;;;;10.25;2.00;;;6.80;95.10;;;;;;5084191;28;20044;-71
2021/03/13 08:09:43;;;;;;;5.85;1.98;;;7.00;95.10;;;;;;5090727;28;20050;-74
2021/03/13 08:12:10;;;;;;;8.05;1.58;;;7.10;94.10;;;;;;5104241;28;20403;-77
2021/03/13 08:14:37;;;;;;;10.50;1.80;;;7.10;94.50;;;;;;5094755;28;20047;-72
2021/03/13 08:17:06;;;;;;;10.43;1.88;;;7.20;94.60;;;;;;5091884;28;20068;-71
2021/03/13 08:19:44;;;;;;;10.93;2.13;;;7.20;94.90;;;;;;5099364;28;20062;-81
2021/03/13 08:22:22;;;;;;;12.13;2.40;;;7.20;94.30;;;;;;5107473;28;20040;-83
2021/03/13 08:24:53;;;;;;;12.20;1.75;;;7.30;94.70;;;;;;5106492;28;20052;-81
2021/03/13 08:27:39;;;;;;;8.73;2.47;;;7.30;93.50;;;;;;5108030;28;20051;-81
2021/03/13 08:30:22;;;;;;;12.40;2.38;;;7.30;92.30;;;;;;5098407;28;20055;-79
2021/03/13 08:33:03;;;;;;;12.63;2.78;;;7.30;93.00;;;;;;5105492;28;20040;-82
2021/03/13 08:35:40;;;;;;;10.63;2.72;;;7.30;93.70;;;;;;5108610;28;20046;-83
2021/03/13 08:38:07;;;;;;;17.73;2.70;;;7.50;92.40;;;;;;5090124;28;20051;-84
2021/03/13 08:40:33;;;;;;;14.23;2.63;;;7.50;92.20;;;;;;5107963;28;20502;-85
2021/03/13 08:42:59;;;;;;;12.68;3.45;;;7.50;92.70;;;;;;5108272;28;20040;-84
2021/03/13 08:45:34;;;;;;;11.77;2.30;;;7.50;91.30;;;;;;5103134;28;20097;-85
2021/03/13 08:48:00;;;;;;;10.55;3.08;;;7.40;92.00;;;;;;5097608;28;20048;-85
2021/03/13 08:50:47;;;;;;;13.75;2.90;;;7.40;91.70;;;;;;5099481;28;20557;-85
2021/03/13 08:53:35;;;;;;;14.93;2.53;;;7.40;92.70;;;;;;5107218;28;20052;-78
2021/03/13 08:56:03;;;;;;;13.60;3.47;;;7.50;91.90;;;;;;5097550;28;20071;-83
2021/03/13 08:58:45;;;;;;;13.07;2.50;;;7.50;92.10;;;;;;5092496;28;20501;-77
2021/03/13 09:01:14;;;;;;;18.77;2.72;;;7.50;93.60;;;;;;5068950;28;20257;-83
2021/03/13 09:03:53;;;;;;;18.73;3.20;;;7.50;93.30;;;;;;5084484;28;20059;-80
2021/03/13 09:06:21;;;;;;;12.37;2.47;;;7.40;94.20;;;;;;5092333;28;20388;-81
2021/03/13 09:08:48;;;;;;;13.38;2.85;;;7.20;94.30;;;;;;5072967;28;20148;-79
2021/03/13 09:11:26;;;;;;;12.85;2.45;;;7.20;94.60;;;;;;5107191;28;20047;-80
2021/03/13 09:14:02;;;;;;;16.38;3.53;;;7.30;95.80;;;;;;5098422;28;20072;-81
2021/03/13 09:16:36;;;;;;;13.30;2.22;;;7.40;95.50;;;;;;5107448;28;20043;-74
2021/03/13 09:19:04;;;;;;;16.08;2.97;;;7.30;94.90;;;;;;5074760;28;20056;-89
2021/03/13 09:21:40;;;;;;;13.02;2.45;;;7.20;95.60;;;;;;5084677;28;20071;-84
2021/03/13 09:24:07;;;;;;;16.08;2.90;;;7.00;95.70;;;;;;5092240;28;20059;-81
2021/03/13 09:26:33;;;;;;;9.52;2.60;;;6.70;95.40;;;;;;5084402;28;20148;-84
2021/03/13 09:28:59;;;;;;;10.55;2.47;;;6.20;96.90;;;;;;5090238;28;20121;-85
2021/03/13 09:31:25;;;;;;;6.68;1.38;;;5.80;98.00;;;;;;5108260;28;20039;-76
2021/03/13 09:33:51;;;;;;;8.80;2.10;;;5.60;98.60;;;;;;5094673;28;20166;-83
2021/03/13 09:36:17;;;;;;;8.85;1.75;;;5.50;98.70;;;;;;5103097;28;20474;-85
2021/03/13 09:38:56;;;;;;;11.93;1.95;;;5.60;98.20;;;;;;5099786;28;20129;-86
2021/03/13 09:41:22;;;;;;;9.68;2.47;;;5.70;98.60;;;;;;5104487;28;20047;-85
2021/03/13 09:43:48;;;;;;;11.95;1.63;;;5.80;99.00;;;;;;5090906;28;20044;-85
2021/03/13 09:46:16;;;;;;;7.47;1.90;;;5.90;98.50;;;;;;5096216;28;20044;-86
2021/03/13 09:48:42;;;;;;;9.55;2.80;;;6.00;98.80;;;;;;5091168;28;20056;-85
2021/03/13 09:51:08;;;;;;;13.65;1.92;;;6.10;97.90;;;;;;5101147;28;20043;-84
2021/03/13 09:53:34;;;;;;;14.20;2.35;;;6.30;97.00;;;;;;5081705;28;20062;-84
2021/03/13 09:55:59;;;;;;;15.80;2.70;;;6.60;96.50;;;;;;5105859;28;20048;-85
2021/03/13 09:58:25;;;;;;;12.15;2.28;;;6.70;94.80;;;;;;5090916;28;20040;-82
2021/03/13 10:00:51;;;;;;;12.80;2.72;;;7.20;92.90;;;;;;5090435;28;20047;-82
2021/03/13 10:03:17;;;;;;;7.97;1.90;;;7.60;91.70;;;;;;5092147;28;20064;-84
2021/03/13 10:05:43;;;;;;;13.60;2.42;;;8.00;90.80;;;;;;5100257;28;20050;-85
2021/03/13 10:08:14;;;;;;;10.68;2.60;;;8.20;88.70;;;;;;5089922;28;20058;-84
2021/03/13 10:10:53;;;;;;;9.38;2.28;;;8.10;87.60;;;;;;5079830;28;20044;-83
2021/03/13 10:13:20;;;;;;;7.63;1.88;;;7.90;87.50;;;;;;5085936;28;20044;-83
2021/03/13 10:15:46;;;;;;;12.45;2.00;;;7.60;90.00;;;;;;5097516;28;20032;-83
2021/03/13 10:18:20;;;;;;;12.80;3.13;;;7.70;89.50;;;;;;5086972;28;20044;-83
2021/03/13 10:20:48;;;;;;;12.02;2.47;;;7.90;91.40;;;;;;5083522;28;20045;-84
2021/03/13 10:23:15;;;;;;;13.55;3.25;;;8.10;90.30;;;;;;5059928;28;20067;-83
2021/03/13 10:25:43;;;;;;;8.02;2.65;;;8.00;90.40;;;;;;5089352;28;20102;-82
2021/03/13 10:28:13;;;;;;;8.68;2.28;;;7.40;91.40;;;;;;5065683;28;20064;-83
2021/03/13 10:30:40;;;;;;;;;;;7.10;93.00;;;;;;5070349;28;20132;-83
2021/03/13 10:33:07;;;;;;;10.07;2.42;;;7.00;93.00;;;;;;5052712;28;19948;-84
2021/03/13 10:35:33;;;;;;;11.45;2.42;;;6.90;92.60;;;;;;5071593;28;20041;-83
2021/03/13 10:38:01;;;;;;;10.68;2.47;;;6.90;93.80;;;;;;5052627;28;20552;-74
2021/03/13 10:40:29;;;;;;;8.02;2.30;;;6.90;93.00;;;;;;5094057;28;20086;-77
2021/03/13 10:43:27;;;;;;;11.25;2.35;;;7.20;93.20;;;;;;5068756;28;20060;-75
2021/03/13 10:45:58;;;;;;;10.40;2.90;;;7.20;91.80;;;;;;5065008;28;20059;-75
2021/03/13 10:48:27;;;;;;;9.98;2.05;;;7.30;91.40;;;;;;5067027;28;20127;-78
2021/03/13 10:50:56;;;;;;;15.20;3.08;;;7.50;92.80;;;;;;5076619;28;20066;-76
2021/03/13 10:53:41;;;;;;;24.45;3.13;;;7.60;92.30;;;;;;5069869;28;20048;-74
2021/03/13 10:56:12;;;;;;;14.68;2.88;;;7.80;93.70;;;;;;5069287;28;20048;-76
2021/03/13 10:58:44;;;;;;;;;;;7.70;92.60;;;;;;5055924;28;20106;-73
2021/03/13 11:01:10;;;;;;;12.45;2.55;;;7.70;91.30;;;;;;5067981;28;19943;-73
2021/03/13 11:03:36;;;;;;;15.02;3.47;;;7.50;91.40;;;;;;5049480;28;20040;-79
2021/03/13 11:06:02;;;;;;;9.93;2.33;;;7.30;93.20;;;;;;5066815;28;20123;-75
2021/03/13 11:08:29;;;;;;;7.68;1.83;;;6.90;93.80;;;;;;5055633;28;20052;-72
2021/03/13 11:10:55;;;;;;;11.52;2.40;;;6.50;95.00;;;;;;5088463;28;20096;-74
2021/03/13 11:13:22;;;;;;;11.30;1.63;;;6.20;96.20;;;;;;5072428;28;20098;-77
2021/03/13 11:15:49;;;;;;;9.02;1.83;;;6.10;97.30;;;;;;5091725;28;20075;-75
2021/03/13 11:18:15;;;;;;;12.40;2.25;;;5.30;98.60;;;;;;5074172;28;20077;-75
2021/03/13 11:20:42;;;;;;;11.07;2.17;;;5.00;99.20;;;;;;5091474;28;20068;-74
2021/03/13 11:23:07;;;;;;;11.23;2.05;;;4.80;99.90;;;;;;5069824;28;20052;-74
2021/03/13 11:25:35;;;;;;;7.38;1.83;;;4.80;99.90;;;;;;5089829;28;20060;-79
2021/03/13 11:28:01;;;;;;;9.30;2.13;;;5.00;99.90;;;;;;5068052;28;20075;-74
2021/03/13 11:30:27;;;;;;;10.27;1.65;;;5.20;98.60;;;;;;5094116;28;20044;-81
2021/03/13 11:32:53;;;;;;;9.68;2.33;;;5.50;98.40;;;;;;5077499;28;20104;-82
2021/03/13 11:35:20;;;;;;;10.93;2.25;;;5.70;97.80;;;;;;5084841;28;20048;-81
2021/03/13 11:37:47;;;;;;;14.93;2.50;;;5.90;97.50;;;;;;5079520;28;20067;-81
2021/03/13 11:40:15;;;;;;;11.77;2.22;;;6.10;96.40;;;;;;5065362;28;20316;-81
2021/03/13 11:42:41;;;;;;;13.73;2.65;;;6.30;96.10;;;;;;5058946;28;20048;-80
2021/03/13 11:45:10;;;;;;;12.00;2.42;;;6.50;96.20;;;;;;5063874;28;20088;-79
2021/03/13 11:47:37;;;;;;;11.50;2.42;;;6.50;95.80;;;;;;5054423;28;20037;-79
2021/03/13 11:50:08;;;;;;;14.90;4.05;;;6.60;94.70;;;;;;5057737;28;20154;-79
2021/03/13 11:52:35;;;;;;;10.60;2.22;;;6.90;97.10;;;;;;5037824;28;20048;-81
2021/03/13 11:55:00;;;;;;;11.90;2.95;;;7.20;95.70;;;;;;5042364;28;20080;-81
2021/03/13 11:57:26;;;;;;;15.02;2.63;;;7.30;95.00;;;;;;5057817;28;20041;-82
2021/03/13 11:59:52;;;;;;;14.05;3.10;;;7.40;92.40;;;;;;5067436;28;20048;-83
2021/03/13 12:02:19;;;;;;;9.05;2.42;;;7.30;93.30;;;;;;5061793;28;20170;-83
2021/03/13 12:04:46;;;;;;;10.80;2.72;;;7.20;93.40;;;;;;5056697;28;20052;-81
2021/03/13 12:07:12;;;;;;;9.80;2.25;;;7.20;93.10;;;;;;5057120;28;20486;-82
2021/03/13 12:09:39;;;;;;;9.50;2.55;;;7.00;92.70;;;;;;5050065;28;20044;-82
2021/03/13 12:12:07;;;;;;;12.90;1.67;;;6.60;93.40;;;;;;5064977;28;20386;-74
2021/03/13 12:14:34;;;;;;;6.13;1.30;;;5.70;96.80;;;;;;5070414;28;20067;-76
2021/03/13 12:17:01;;;;;;;4.20;1.02;;;5.10;98.60;;;;;;5063120;28;20067;-77
2021/03/13 12:19:27;;;;;;;3.90;1.13;;;5.00;98.60;;;;;;5062623;28;20435;-74
2021/03/13 12:21:53;;;;;;;5.63;0.90;;;4.80;99.70;;;;;;5081736;28;20036;-75
2021/03/13 12:24:19;;;;;;;4.68;1.77;;;4.70;99.90;;;;;;5077242;28;20063;-75
2021/03/13 12:26:45;;;;;;;6.57;1.13;;;4.70;99.90;;;;;;5086406;28;20052;-76
2021/03/13 12:29:11;;;;;;;5.05;1.42;;;4.80;99.90;;;;;;5072183;28;20119;-77
2021/03/13 12:31:37;;;;;;;4.18;1.35;;;5.00;98.80;;;;;;5089551;28;20082;-80
2021/03/13 12:34:04;;;;;;;4.82;1.35;;;5.20;98.80;;;;;;5079787;28;20063;-80
2021/03/13 12:36:30;;;;;;;4.85;1.33;;;5.10;98.70;;;;;;5090923;28;20051;-78
2021/03/13 12:38:56;;;;;;;11.98;2.38;;;5.30;99.00;;;;;;5078231;28;20060;-81
2021/03/13 12:41:22;;;;;;;10.50;2.00;;;5.70;98.80;;;;;;5090941;28;20098;-77
2021/03/13 12:43:49;;;;;;;8.75;1.65;;;5.70;97.70;;;;;;5071151;28;20129;-81
2021/03/13 12:46:15;;;;;;;10.63;2.20;;;5.60;98.10;;;;;;5090212;28;20557;-79
2021/03/13 12:48:45;;;;;;;12.23;2.97;;;5.60;98.70;;;;;;5073037;28;20083;-80
2021/03/13 12:51:11;;;;;;;14.95;2.55;;;5.50;98.40;;;;;;5092336;28;20119;-82
2021/03/13 12:53:37;;;;;;;10.15;2.83;;;5.60;99.00;;;;;;5075167;28;20036;-80
2021/03/13 12:56:04;;;;;;;12.32;2.20;;;5.50;99.10;;;;;;5077212;28;20057;-80
2021/03/13 12:58:30;;;;;;;14.10;2.80;;;5.50;99.90;;;;;;5071253;28;20040;-81
2021/03/13 13:00:56;;;;;;;20.30;2.38;;;5.50;99.90;;;;;;5093219;28;20066;-78